createdAt,value
2022-07-28T00:03:35.565Z,63.05
2022-07-28T00:07:39.389Z,63.12
2022-07-28T00:11:50.438Z,62.83
2022-07-28T00:15:59.851Z,62.58
2022-07-28T00:20:03.469Z,63.25
2022-07-28T00:24:07.583Z,63.10
2022-07-28T00:28:10.661Z,62.78
2022-07-28T00:32:15.424Z,62.77
2022-07-28T00:36:19.598Z,62.73
2022-07-28T00:40:48.601Z,62.98
2022-07-28T00:44:54.032Z,63.25
2022-07-28T00:48:59.167Z,62.99
2022-07-28T00:53:02.606Z,63.53
2022-07-28T00:57:06.737Z,63.72
2022-07-28T01:01:11.665Z,63.90
2022-07-28T01:05:16.631Z,63.96
2022-07-28T01:09:33.812Z,63.06
2022-07-28T01:13:44.532Z,63.96
2022-07-28T01:17:56.292Z,64.48
2022-07-28T01:22:03.430Z,64.48
2022-07-28T01:26:29.489Z,64.31
2022-07-28T01:30:38.657Z,65.07
2022-07-28T01:34:47.322Z,65.76
2022-07-28T01:38:51.343Z,65.87
2022-07-28T01:43:00.868Z,65.59
2022-07-28T01:47:08.407Z,65.47
2022-07-28T01:51:12.923Z,66.17
2022-07-28T01:55:18.584Z,66.23
2022-07-28T01:59:25.148Z,65.88
2022-07-28T02:03:31.937Z,66.32
2022-07-28T02:07:37.990Z,66.67
2022-07-28T02:11:43.009Z,67.09
2022-07-28T02:15:46.771Z,67.18
2022-07-28T02:19:54.260Z,66.65
2022-07-28T02:23:59.938Z,66.59
2022-07-28T02:28:08.259Z,66.46
2022-07-28T02:32:27.263Z,66.72
2022-07-28T02:36:39.600Z,66.68
2022-07-28T02:40:46.835Z,66.64
2022-07-28T02:44:58.225Z,66.39
2022-07-28T02:49:06.524Z,66.68
2022-07-28T02:53:15.265Z,66.52
2022-07-28T02:57:20.240Z,67.34
2022-07-28T03:01:26.302Z,67.20
2022-07-28T03:05:30.152Z,67.40
2022-07-28T03:09:40.681Z,66.58
2022-07-28T03:13:44.228Z,67.42
2022-07-28T03:17:47.582Z,67.93
2022-07-28T03:21:53.338Z,67.91
2022-07-28T03:26:03.842Z,67.24
2022-07-28T03:30:11.113Z,68.22
2022-07-28T03:34:15.489Z,68.26
2022-07-28T03:38:23.672Z,67.91
2022-07-28T03:42:30.232Z,68.04
2022-07-28T03:46:34.597Z,68.10
2022-07-28T03:50:38.283Z,68.21
2022-07-28T03:54:42.025Z,68.22
2022-07-28T03:58:46.589Z,67.85
2022-07-28T04:02:50.232Z,67.82
2022-07-28T04:06:53.941Z,67.78
2022-07-28T04:10:57.019Z,67.75
2022-07-28T04:15:01.929Z,67.42
2022-07-28T04:19:05.407Z,67.19
2022-07-28T04:23:10.370Z,66.92
2022-07-28T04:27:14.164Z,66.97
2022-07-28T04:31:20.500Z,66.50
2022-07-28T04:35:30.153Z,66.66
2022-07-28T04:39:33.611Z,66.60
2022-07-28T04:43:38.266Z,66.62
2022-07-28T04:47:43.804Z,66.56
2022-07-28T04:51:50.639Z,66.46
2022-07-28T04:55:55.939Z,66.58
2022-07-28T05:00:00.727Z,66.69
2022-07-28T05:04:05.337Z,66.34
2022-07-28T05:08:08.805Z,66.44
2022-07-28T05:12:12.472Z,66.22
2022-07-28T05:16:15.592Z,66.47
2022-07-28T05:20:20.858Z,66.40
2022-07-28T05:24:24.383Z,66.56
2022-07-28T05:28:28.016Z,66.15
2022-07-28T05:32:31.078Z,66.22
2022-07-28T05:36:37.312Z,66.10
2022-07-28T05:40:40.422Z,65.06
2022-07-28T05:44:43.577Z,65.91
2022-07-28T05:48:47.722Z,65.45
2022-07-28T05:52:53.129Z,64.81
2022-07-28T05:56:57.040Z,63.88
2022-07-28T06:01:02.190Z,63.75
2022-07-28T06:05:07.142Z,62.79
2022-07-28T06:09:13.325Z,63.13
2022-07-28T06:13:17.612Z,61.85
2022-07-28T06:17:20.983Z,61.42
2022-07-28T06:21:25.384Z,60.93
2022-07-28T06:25:31.509Z,60.74
2022-07-28T06:29:35.406Z,60.42
2022-07-28T06:33:38.593Z,60.02
2022-07-28T06:37:42.696Z,58.02
2022-07-28T06:41:47.866Z,57.34
2022-07-28T06:45:51.981Z,57.42
2022-07-28T06:49:55.518Z,56.78
2022-07-28T06:53:59.838Z,54.42
2022-07-28T06:58:04.428Z,53.48
2022-07-28T07:02:08.577Z,51.64
2022-07-28T07:06:12.766Z,50.57
2022-07-28T07:10:18.931Z,51.97
2022-07-28T07:14:24.093Z,50.68
2022-07-28T07:18:27.965Z,50.94
2022-07-28T07:22:31.682Z,50.87
2022-07-28T07:26:34.862Z,49.60
2022-07-28T07:30:40.345Z,48.99
2022-07-28T07:34:46.349Z,47.73
2022-07-28T07:38:49.858Z,47.05
2022-07-28T07:42:53.494Z,47.19
2022-07-28T07:46:58.038Z,47.13
2022-07-28T07:51:01.845Z,47.25
2022-07-28T07:55:06.109Z,45.70
2022-07-28T07:59:09.117Z,45.47
2022-07-28T08:03:14.491Z,45.25
2022-07-28T08:07:18.239Z,44.06
2022-07-28T08:11:25.957Z,44.82
2022-07-28T08:15:29.633Z,45.80
2022-07-28T08:19:34.636Z,46.01
2022-07-28T08:23:37.992Z,47.30
2022-07-28T08:27:41.449Z,45.21
2022-07-28T08:31:44.537Z,44.77
2022-07-28T08:35:50.027Z,44.62
2022-07-28T08:39:53.481Z,43.12
2022-07-28T08:43:58.039Z,42.96
2022-07-28T08:48:10.262Z,42.19
2022-07-28T08:52:16.297Z,41.82
2022-07-28T08:56:21.140Z,42.00
2022-07-28T09:00:24.940Z,41.20
2022-07-28T09:04:28.774Z,41.06
2022-07-28T09:08:34.057Z,41.52
2022-07-28T09:12:37.640Z,39.70
2022-07-28T09:16:41.470Z,38.97
2022-07-28T09:20:46.273Z,38.30
2022-07-28T09:24:50.941Z,38.16
2022-07-28T09:28:55.843Z,38.40
2022-07-28T09:33:42.428Z,41.82
2022-07-28T09:37:45.146Z,38.54
2022-07-28T09:41:55.808Z,39.31
2022-07-28T09:46:06.016Z,39.84
2022-07-28T09:50:10.830Z,37.26
2022-07-28T09:54:17.190Z,39.45
2022-07-28T09:58:22.081Z,38.53
2022-07-28T10:02:28.589Z,38.02
2022-07-28T10:06:37.913Z,37.43
2022-07-28T10:10:43.624Z,36.70
2022-07-28T10:14:49.071Z,36.77
2022-07-28T10:18:52.755Z,37.22
2022-07-28T10:23:05.043Z,37.86
2022-07-28T10:27:09.510Z,36.33
2022-07-28T10:31:19.532Z,36.32
2022-07-28T10:35:24.099Z,36.40
2022-07-28T10:39:32.282Z,36.82
2022-07-28T10:43:36.701Z,37.32
2022-07-28T10:47:48.125Z,36.34
2022-07-28T10:52:02.440Z,35.95
2022-07-28T10:56:17.298Z,36.48
2022-07-28T11:00:26.982Z,35.79
2022-07-28T11:05:02.025Z,36.52
2022-07-28T11:09:26.160Z,37.03
2022-07-28T11:13:32.922Z,36.07
2022-07-28T11:17:36.712Z,34.61
2022-07-28T11:22:23.468Z,34.38
2022-07-28T11:26:46.116Z,36.94
2022-07-28T11:30:56.083Z,35.52
2022-07-28T11:35:21.202Z,36.70
2022-07-28T11:39:27.127Z,36.11
2022-07-28T11:43:37.746Z,35.35
2022-07-28T11:47:42.859Z,33.95
2022-07-28T11:52:22.608Z,35.55
2022-07-28T11:56:29.909Z,34.69
2022-07-28T12:00:33.759Z,34.32
2022-07-28T12:04:37.614Z,33.95
2022-07-28T12:08:53.541Z,33.39
2022-07-28T12:13:00.576Z,34.00
2022-07-28T12:17:04.164Z,33.38
2022-07-28T12:21:08.445Z,34.08
2022-07-28T12:25:13.351Z,34.99
2022-07-28T12:29:20.765Z,33.83
2022-07-28T12:33:29.501Z,34.81
2022-07-28T12:37:33.191Z,33.85
2022-07-28T12:41:40.056Z,34.31
2022-07-28T12:45:48.463Z,34.75
2022-07-28T12:50:10.471Z,34.07
2022-07-28T12:54:15.350Z,33.97
2022-07-28T12:58:27.691Z,33.01
2022-07-28T13:02:39.168Z,33.29
2022-07-28T13:06:42.921Z,33.02
2022-07-28T13:10:49.598Z,33.34
2022-07-28T13:14:58.508Z,32.79
2022-07-28T13:19:05.884Z,32.80
2022-07-28T13:23:09.699Z,33.57
2022-07-28T13:27:13.232Z,32.54
2022-07-28T13:31:16.400Z,32.12
2022-07-28T13:35:21.838Z,33.04
2022-07-28T13:39:25.780Z,31.86
2022-07-28T13:43:35.913Z,31.62
2022-07-28T13:47:39.979Z,31.88
2022-07-28T13:51:44.705Z,32.57
2022-07-28T13:55:48.174Z,31.98
2022-07-28T13:59:51.752Z,31.90
2022-07-28T14:03:58.085Z,32.50
2022-07-28T14:08:03.466Z,31.84
2022-07-28T14:12:07.565Z,31.98
2022-07-28T14:16:14.556Z,32.59
2022-07-28T14:20:18.484Z,31.42
2022-07-28T14:24:23.402Z,32.24
2022-07-28T14:28:26.691Z,31.56
2022-07-28T14:32:30.190Z,31.62
2022-07-28T14:36:33.789Z,31.59
2022-07-28T14:40:39.987Z,30.83
2022-07-28T14:44:43.293Z,32.16
2022-07-28T14:48:46.853Z,31.46
2022-07-28T14:52:50.809Z,32.70
2022-07-28T14:56:56.096Z,32.79
2022-07-28T15:00:59.329Z,32.80
2022-07-28T15:05:03.434Z,33.41
2022-07-28T15:09:07.338Z,34.32
2022-07-28T15:13:12.236Z,33.21
2022-07-28T15:17:15.877Z,33.43
2022-07-28T15:21:18.990Z,32.10
2022-07-28T15:25:22.551Z,32.21
2022-07-28T15:29:28.025Z,32.82
2022-07-28T15:33:48.108Z,32.68
2022-07-28T15:37:54.606Z,32.44
2022-07-28T15:41:57.674Z,32.34
2022-07-28T15:46:05.670Z,32.38
2022-07-28T15:50:09.937Z,32.00
2022-07-28T15:54:13.437Z,32.29
2022-07-28T15:58:16.693Z,33.71
2022-07-28T16:02:23.360Z,33.31
2022-07-28T16:06:47.578Z,33.53
2022-07-28T16:10:51.594Z,32.38
2022-07-28T16:14:58.425Z,32.82
2022-07-28T16:19:03.363Z,33.05
2022-07-28T16:23:07.591Z,33.11
2022-07-28T16:27:10.911Z,33.70
2022-07-28T16:31:14.593Z,33.98
2022-07-28T16:35:20.457Z,34.24
2022-07-28T16:39:24.047Z,34.05
2022-07-28T16:43:27.287Z,34.26
2022-07-28T16:47:30.912Z,33.90
2022-07-28T16:51:35.902Z,34.11
2022-07-28T16:55:40.560Z,34.46
2022-07-28T16:59:48.797Z,34.84
2022-07-28T17:03:52.768Z,34.82
2022-07-28T17:07:59.004Z,34.46
2022-07-28T17:12:03.010Z,34.93
2022-07-28T17:16:06.602Z,35.42
2022-07-28T17:20:10.857Z,35.56
2022-07-28T17:24:16.441Z,35.77
2022-07-28T17:28:19.783Z,36.79
2022-07-28T17:32:23.387Z,36.67
2022-07-28T17:36:26.818Z,37.40
2022-07-28T17:40:31.799Z,37.70
2022-07-28T17:44:35.577Z,38.41
2022-07-28T17:48:40.399Z,38.80
2022-07-28T17:52:45.444Z,40.05
2022-07-28T17:56:51.075Z,40.28
2022-07-28T18:00:56.053Z,40.57
2022-07-28T18:04:59.786Z,41.55
2022-07-28T18:09:07.138Z,41.82
2022-07-28T18:13:12.733Z,41.55
2022-07-28T18:17:15.911Z,41.09
2022-07-28T18:21:20.551Z,41.54
2022-07-28T18:25:24.006Z,42.30
2022-07-28T18:29:37.733Z,41.54
2022-07-28T18:33:42.457Z,42.33
2022-07-28T18:37:46.268Z,41.50
2022-07-28T18:41:49.928Z,41.84
2022-07-28T18:45:55.117Z,41.95
2022-07-28T18:49:58.539Z,42.12
2022-07-28T18:54:02.035Z,42.67
2022-07-28T18:58:05.107Z,42.83
2022-07-28T19:02:11.272Z,43.33
2022-07-28T19:06:15.205Z,43.17
2022-07-28T19:10:18.300Z,43.35
2022-07-28T19:14:21.917Z,44.52
2022-07-28T19:18:27.205Z,44.53
2022-07-28T19:22:30.944Z,44.33
2022-07-28T19:26:34.863Z,44.92
2022-07-28T19:30:38.618Z,45.00
2022-07-28T19:34:43.655Z,45.48
2022-07-28T19:38:47.272Z,45.63
2022-07-28T19:42:50.905Z,45.99
2022-07-28T19:46:56.744Z,46.20
2022-07-28T19:51:01.963Z,46.03
2022-07-28T19:55:05.969Z,46.71
2022-07-28T19:59:10.119Z,46.76
2022-07-28T20:04:02.017Z,46.80
2022-07-28T20:07:39.377Z,46.51
2022-07-28T20:11:42.686Z,46.72
2022-07-28T20:15:46.432Z,47.10
2022-07-28T20:19:50.416Z,47.92
2022-07-28T20:23:57.169Z,47.32
2022-07-28T20:28:00.970Z,48.08
2022-07-28T20:32:07.009Z,48.85
2022-07-28T20:36:10.286Z,48.85
2022-07-28T20:40:15.271Z,48.25
2022-07-28T20:44:30.235Z,49.06
2022-07-28T20:48:33.962Z,49.25
2022-07-28T20:52:37.593Z,48.85
2022-07-28T20:56:42.124Z,48.99
2022-07-28T21:00:48.450Z,49.60
2022-07-28T21:04:52.465Z,49.44
2022-07-28T21:09:00.419Z,49.79
2022-07-28T21:13:05.567Z,49.57
2022-07-28T21:17:09.008Z,50.37
2022-07-28T21:21:12.769Z,49.96
2022-07-28T21:25:16.161Z,50.75
2022-07-28T21:33:23.946Z,51.00
2022-07-28T21:37:27.682Z,50.72
2022-07-28T21:41:36.260Z,50.66
2022-07-28T21:45:41.798Z,50.33
2022-07-28T21:49:45.500Z,50.89
2022-07-28T21:53:49.550Z,50.76
2022-07-28T21:57:54.307Z,50.24
2022-07-28T22:01:58.738Z,50.16
2022-07-28T22:06:02.328Z,50.33
2022-07-28T22:10:06.904Z,50.48
2022-07-28T22:14:10.168Z,50.30
2022-07-28T22:18:16.909Z,49.83
2022-07-28T22:26:29.166Z,50.12
2022-07-28T22:30:32.713Z,50.12
2022-07-28T22:34:38.068Z,50.33
2022-07-28T22:38:41.372Z,50.72
2022-07-28T22:42:45.726Z,49.97
2022-07-28T22:46:49.218Z,50.84
2022-07-28T22:50:54.385Z,50.61
2022-07-28T22:54:58.382Z,51.25
2022-07-28T22:59:01.761Z,52.02
2022-07-28T23:03:05.861Z,51.36
2022-07-28T23:07:15.155Z,51.28
2022-07-28T23:11:18.321Z,51.46
2022-07-28T23:15:22.029Z,52.27
2022-07-28T23:19:25.218Z,51.73
2022-07-28T23:23:29.799Z,51.89
2022-07-28T23:27:33.442Z,53.70
2022-07-28T23:31:37.463Z,54.75
2022-07-28T23:35:41.564Z,56.17
2022-07-28T23:39:46.508Z,55.32
2022-07-28T23:43:50.039Z,55.60
2022-07-28T23:47:58.381Z,56.94
2022-07-28T23:52:01.959Z,54.80
2022-07-28T23:56:07.932Z,55.17
